Time;durP1;ratioP1;P1;durP2;ratioP2;P2;SDS_P1;SDS_P2;PMS_P1;PMS_P2;Temp;Humidity;BMP_temperature;BMP_pressure;BME280_temperature;BME280_humidity;BME280_pressure;Samples;Min_cycle;Max_cycle;Signal;HPM_P1;HPM_P2
2022/07/22 00:02:28;;;;;;;5.47;4.97;;;21.50;99.90;;;;;;5206832;28;20238;-46
2022/07/22 00:04:58;;;;;;;7.30;5.90;;;21.50;99.90;;;;;;5219787;28;20186;-46
2022/07/22 00:07:29;;;;;;;5.67;5.30;;;21.50;99.90;;;;;;5183613;28;20523;-46
2022/07/22 00:09:59;;;;;;;6.53;5.40;;;21.50;99.90;;;;;;5219982;28;20184;-47
2022/07/22 00:12:30;;;;;;;5.27;4.77;;;21.50;99.90;;;;;;5190629;28;20222;-46
2022/07/22 00:15:01;;;;;;;8.83;5.77;;;21.40;99.90;;;;;;5191894;28;20596;-45
2022/07/22 00:17:31;;;;;;;4.80;4.20;;;21.50;99.90;;;;;;5199269;28;20178;-46
2022/07/22 00:20:04;;;;;;;7.07;5.67;;;21.50;99.90;;;;;;5188956;28;20206;-48
2022/07/22 00:22:35;;;;;;;5.10;4.80;;;21.50;99.90;;;;;;5187848;28;20203;-45
2022/07/22 00:25:07;;;;;;;3.97;3.60;;;21.50;99.90;;;;;;5218906;28;20432;-46
2022/07/22 00:27:37;;;;;;;5.50;5.07;;;21.50;99.90;;;;;;5209785;28;20525;-46
2022/07/22 00:30:09;;;;;;;4.47;4.17;;;21.50;99.90;;;;;;5181554;28;20572;-46
2022/07/22 00:32:39;;;;;;;5.20;4.80;;;21.60;99.90;;;;;;5212708;28;20218;-46
2022/07/22 00:35:10;;;;;;;5.07;4.60;;;21.60;99.90;;;;;;5211096;28;20738;-46
2022/07/22 00:37:41;;;;;;;5.57;4.17;;;21.70;99.90;;;;;;5185079;28;20175;-45
2022/07/22 00:40:12;;;;;;;15.20;10.47;;;21.70;99.90;;;;;;5224498;28;20253;-47
2022/07/22 00:42:42;;;;;;;4.90;4.40;;;21.70;99.90;;;;;;5214554;28;20785;-46
2022/07/22 00:45:13;;;;;;;4.70;4.30;;;21.70;99.90;;;;;;5194195;28;20406;-46
2022/07/22 00:47:44;;;;;;;4.00;3.63;;;21.60;99.90;;;;;;5210838;28;20195;-46
2022/07/22 00:50:14;;;;;;;6.77;5.10;;;21.60;99.90;;;;;;5221767;28;20190;-46
2022/07/22 00:52:47;;;;;;;3.83;3.53;;;21.70;99.90;;;;;;5186445;28;20620;-46
2022/07/22 00:55:17;;;;;;;4.93;4.37;;;21.70;99.90;;;;;;5213598;28;20180;-45
2022/07/22 00:57:48;;;;;;;4.33;4.03;;;21.70;99.90;;;;;;5213648;28;20791;-51
2022/07/22 01:00:20;;;;;;;3.87;3.53;;;21.70;99.90;;;;;;5226337;28;20188;-53
2022/07/22 01:02:51;;;;;;;5.07;4.30;;;21.60;99.90;;;;;;5209720;28;20699;-46
2022/07/22 01:05:22;;;;;;;4.73;4.23;;;21.60;99.90;;;;;;5211066;28;20450;-46
2022/07/22 01:07:53;;;;;;;4.30;4.00;;;21.60;99.90;;;;;;5199406;28;20182;-46
2022/07/22 01:10:24;;;;;;;4.83;4.10;;;21.60;99.90;;;;;;5204578;28;20525;-46
2022/07/22 01:12:54;;;;;;;4.63;3.30;;;21.60;99.90;;;;;;5204804;28;20684;-46
2022/07/22 01:15:25;;;;;;;4.30;4.00;;;21.60;99.90;;;;;;5205029;28;20430;-47
2022/07/22 01:17:55;;;;;;;4.87;4.50;;;21.60;99.90;;;;;;5180356;28;20176;-46
2022/07/22 01:20:26;;;;;;;6.20;3.70;;;21.60;99.90;;;;;;5214305;28;20554;-45
2022/07/22 01:22:57;;;;;;;4.73;4.30;;;21.60;99.90;;;;;;5208172;28;20682;-46
2022/07/22 01:25:28;;;;;;;5.63;4.10;;;21.60;99.90;;;;;;5190669;28;20211;-46
2022/07/22 01:27:58;;;;;;;5.00;4.60;;;21.60;99.90;;;;;;5207791;28;20289;-47
2022/07/22 01:30:29;;;;;;;4.13;3.83;;;21.60;99.90;;;;;;5218589;28;20636;-46
2022/07/22 01:32:59;;;;;;;3.90;3.50;;;21.50;99.90;;;;;;5208498;28;20203;-46
2022/07/22 01:35:30;;;;;;;3.70;3.40;;;21.50;99.90;;;;;;5196211;28;20183;-45
2022/07/22 01:38:00;;;;;;;3.87;3.67;;;21.50;99.90;;;;;;5199247;28;20267;-46
2022/07/22 01:40:31;;;;;;;5.00;4.50;;;21.40;99.90;;;;;;5209977;28;20184;-46
2022/07/22 01:43:02;;;;;;;7.30;4.73;;;21.40;99.90;;;;;;5207848;28;20215;-45
2022/07/22 01:45:33;;;;;;;4.00;3.77;;;21.40;99.90;;;;;;5211602;28;20176;-47
2022/07/22 01:48:04;;;;;;;3.43;3.03;;;21.30;99.90;;;;;;5210702;28;20399;-46
2022/07/22 01:50:35;;;;;;;3.13;3.03;;;21.30;99.90;;;;;;5209506;28;20586;-46
2022/07/22 01:53:06;;;;;;;4.53;3.70;;;21.20;99.90;;;;;;5211220;28;20203;-46
2022/07/22 01:55:37;;;;;;;3.50;3.23;;;21.10;99.90;;;;;;5215431;28;20180;-45
2022/07/22 01:58:08;;;;;;;4.73;4.30;;;21.10;99.90;;;;;;5215038;28;20770;-46
2022/07/22 02:00:39;;;;;;;4.73;4.13;;;21.00;99.90;;;;;;5192227;28;20183;-47
2022/07/22 02:03:10;;;;;;;4.00;3.80;;;21.00;99.90;;;;;;5218912;28;20197;-47
2022/07/22 02:05:41;;;;;;;3.83;3.63;;;20.90;99.90;;;;;;5207422;28;20507;-45
2022/07/22 02:08:13;;;;;;;3.97;3.70;;;20.90;99.90;;;;;;5211072;28;20437;-44
2022/07/22 02:10:44;;;;;;;3.53;3.27;;;20.90;99.90;;;;;;5217957;28;20211;-46
2022/07/22 02:13:15;;;;;;;3.60;3.40;;;20.90;99.90;;;;;;5215345;28;20821;-46
2022/07/22 02:15:45;;;;;;;10.10;3.27;;;20.90;99.90;;;;;;5225560;28;20417;-46
2022/07/22 02:18:18;;;;;;;3.93;3.43;;;20.80;99.90;;;;;;5191526;28;20183;-45
2022/07/22 02:20:48;;;;;;;6.23;5.63;;;20.80;99.90;;;;;;5212733;28;20184;-47
2022/07/22 02:23:19;;;;;;;3.93;3.67;;;20.80;99.90;;;;;;5208445;28;20464;-46
2022/07/22 02:25:49;;;;;;;5.67;4.13;;;20.80;99.90;;;;;;5219018;28;20542;-45
2022/07/22 02:28:20;;;;;;;4.27;4.07;;;20.80;99.90;;;;;;5191062;28;20686;-45
2022/07/22 02:30:51;;;;;;;4.57;4.30;;;20.70;99.90;;;;;;5214360;28;20205;-45
2022/07/22 02:33:21;;;;;;;4.33;4.00;;;20.70;99.90;;;;;;5223673;28;20225;-46
2022/07/22 02:35:52;;;;;;;7.63;4.30;;;20.60;99.90;;;;;;5210459;28;20183;-45
2022/07/22 02:38:23;;;;;;;6.90;4.03;;;20.50;99.90;;;;;;5210647;28;20187;-46
2022/07/22 02:40:53;;;;;;;11.10;8.00;;;20.50;99.90;;;;;;5222016;28;20190;-46
2022/07/22 02:43:24;;;;;;;4.73;4.37;;;20.40;99.90;;;;;;5211795;28;20239;-46
2022/07/22 02:45:54;;;;;;;6.73;3.90;;;20.40;99.90;;;;;;5207771;28;20179;-46
2022/07/22 02:48:25;;;;;;;5.00;4.60;;;20.30;99.90;;;;;;5203876;28;20271;-46
2022/07/22 02:50:56;;;;;;;4.73;4.20;;;20.30;99.90;;;;;;5195897;28;20781;-45
2022/07/22 02:53:26;;;;;;;5.33;5.03;;;20.30;99.90;;;;;;5211326;28;20242;-45
2022/07/22 02:55:57;;;;;;;4.60;4.30;;;20.20;99.90;;;;;;5197647;28;20588;-46
2022/07/22 02:58:27;;;;;;;5.67;5.10;;;20.20;99.90;;;;;;5193093;28;20184;-45
2022/07/22 03:00:58;;;;;;;5.10;4.70;;;20.10;99.90;;;;;;5189925;28;20188;-47
2022/07/22 03:03:28;;;;;;;7.17;4.90;;;20.10;99.90;;;;;;5189675;28;20199;-46
2022/07/22 03:05:59;;;;;;;5.13;4.83;;;20.10;99.90;;;;;;5207682;28;20564;-46
2022/07/22 03:08:30;;;;;;;5.77;4.80;;;20.10;99.90;;;;;;5220613;28;20183;-46
2022/07/22 03:11:00;;;;;;;6.07;5.57;;;20.10;99.90;;;;;;5213038;28;20212;-45
2022/07/22 03:13:32;;;;;;;5.63;5.13;;;20.10;99.90;;;;;;5195675;28;20211;-46
2022/07/22 03:16:02;;;;;;;6.30;5.80;;;20.00;99.90;;;;;;5207227;28;20183;-46
2022/07/22 03:18:34;;;;;;;6.10;5.60;;;19.90;99.90;;;;;;5195534;28;20467;-45
2022/07/22 03:21:05;;;;;;;7.47;5.80;;;19.90;99.90;;;;;;5205451;28;20179;-47
2022/07/22 03:23:35;;;;;;;6.00;5.50;;;19.90;99.90;;;;;;5209094;28;20523;-45
2022/07/22 03:26:06;;;;;;;6.70;6.10;;;19.80;99.90;;;;;;5198578;28;20191;-46
2022/07/22 03:28:37;;;;;;;6.93;5.80;;;19.70;99.90;;;;;;5210720;28;20186;-46
2022/07/22 03:31:08;;;;;;;12.13;6.60;;;19.70;99.90;;;;;;5206843;28;20199;-46
2022/07/22 03:33:38;;;;;;;7.33;6.30;;;19.60;99.90;;;;;;5216312;28;20551;-46
2022/07/22 03:36:09;;;;;;;15.93;6.73;;;19.60;99.90;;;;;;5207454;28;20326;-46
2022/07/22 03:38:40;;;;;;;5.20;4.80;;;19.50;99.90;;;;;;5206845;28;20176;-46
2022/07/22 03:41:10;;;;;;;6.40;5.80;;;19.50;99.90;;;;;;5209811;28;20488;-46
2022/07/22 03:43:41;;;;;;;7.60;6.60;;;19.50;99.90;;;;;;5212070;28;20219;-47
2022/07/22 03:46:11;;;;;;;7.20;6.50;;;19.50;99.90;;;;;;5189657;28;20179;-46
2022/07/22 03:48:42;;;;;;;7.53;6.93;;;19.60;99.90;;;;;;5209099;28;20182;-47
2022/07/22 03:51:13;;;;;;;12.63;6.10;;;19.60;99.90;;;;;;5194304;28;20203;-48
2022/07/22 03:53:43;;;;;;;8.27;7.20;;;19.60;99.90;;;;;;5211710;28;20207;-46
2022/07/22 03:56:14;;;;;;;6.27;5.63;;;19.70;99.90;;;;;;5199076;28;20194;-45
2022/07/22 03:58:45;;;;;;;7.77;6.53;;;19.80;99.90;;;;;;5191733;28;20183;-46
2022/07/22 04:01:15;;;;;;;11.17;6.90;;;19.90;99.90;;;;;;5209014;28;20183;-47
2022/07/22 04:03:46;;;;;;;8.20;6.83;;;19.90;99.90;;;;;;5219388;28;20183;-45
2022/07/22 04:06:17;;;;;;;8.37;7.40;;;20.00;99.90;;;;;;5225516;28;20186;-46
2022/07/22 04:08:48;;;;;;;10.27;7.80;;;20.00;99.90;;;;;;5192054;28;20194;-46
2022/07/22 04:11:18;;;;;;;8.07;7.17;;;20.00;99.90;;;;;;5213413;28;20192;-47
2022/07/22 04:13:49;;;;;;;6.57;5.67;;;20.10;99.90;;;;;;5210835;28;20492;-45
2022/07/22 04:16:20;;;;;;;8.13;7.30;;;20.10;99.90;;;;;;5212007;28;20172;-46
2022/07/22 04:18:51;;;;;;;7.70;6.33;;;20.20;99.90;;;;;;5209704;28;20785;-45
2022/07/22 04:21:22;;;;;;;6.83;6.17;;;20.20;99.90;;;;;;5225102;28;20429;-47
2022/07/22 04:23:53;;;;;;;6.90;6.20;;;20.30;99.90;;;;;;5214340;28;20592;-46
2022/07/22 04:28:58;;;;;;;10.70;8.10;;;20.40;99.90;;;;;;5241944;28;20524;-50
2022/07/22 04:31:29;;;;;;;9.00;7.27;;;20.40;99.90;;;;;;5245319;28;20763;-50
2022/07/22 04:33:59;;;;;;;6.93;6.33;;;20.50;99.90;;;;;;5232473;28;20182;-51
2022/07/22 04:36:30;;;;;;;12.20;8.60;;;20.50;99.90;;;;;;5248413;28;20175;-49
2022/07/22 04:39:00;;;;;;;8.60;7.70;;;20.40;99.90;;;;;;5248922;28;20187;-50
2022/07/22 04:41:31;;;;;;;9.90;8.40;;;20.40;99.90;;;;;;5232040;28;20222;-49
2022/07/22 04:44:01;;;;;;;7.83;7.03;;;20.40;99.90;;;;;;5226070;28;20183;-50
2022/07/22 04:46:32;;;;;;;8.90;7.77;;;20.40;99.90;;;;;;5246639;28;20647;-49
2022/07/22 04:49:04;;;;;;;11.80;8.40;;;20.40;99.90;;;;;;5227362;28;20210;-50
2022/07/22 04:51:35;;;;;;;9.50;6.97;;;20.40;99.90;;;;;;5243364;28;20460;-51
2022/07/22 04:54:05;;;;;;;12.13;9.77;;;20.40;99.90;;;;;;5237182;28;20197;-49
2022/07/22 04:56:36;;;;;;;11.73;8.63;;;20.40;99.90;;;;;;5243882;28;20183;-49
2022/07/22 04:59:06;;;;;;;11.20;8.23;;;20.50;99.90;;;;;;5230515;28;20638;-51
2022/07/22 05:01:37;;;;;;;12.40;9.33;;;20.50;99.90;;;;;;5227092;28;20236;-50
2022/07/22 05:04:08;;;;;;;10.10;8.63;;;20.50;99.90;;;;;;5208787;28;20278;-51
2022/07/22 05:06:39;;;;;;;13.93;8.73;;;20.40;99.90;;;;;;5237191;28;20285;-51
2022/07/22 05:09:09;;;;;;;13.90;10.10;;;20.50;99.90;;;;;;5244713;28;20198;-52
2022/07/22 05:11:40;;;;;;;9.17;8.23;;;20.50;99.90;;;;;;5238594;28;20221;-50
2022/07/22 05:14:10;;;;;;;10.33;8.00;;;20.40;99.90;;;;;;5241611;28;20186;-51
2022/07/22 05:16:41;;;;;;;8.47;7.57;;;20.60;99.90;;;;;;5208405;28;20210;-50
2022/07/22 05:19:11;;;;;;;9.70;7.20;;;20.60;99.90;;;;;;5244828;28;20182;-50
2022/07/22 05:21:43;;;;;;;15.73;8.20;;;20.70;99.90;;;;;;5230077;28;20177;-51
2022/07/22 05:24:14;;;;;;;7.53;6.83;;;20.90;99.90;;;;;;5238501;28;20178;-51
2022/07/22 05:26:44;;;;;;;13.10;10.27;;;21.00;99.90;;;;;;5232746;28;20456;-51
2022/07/22 05:29:15;;;;;;;10.33;9.03;;;21.00;99.90;;;;;;5231557;28;20209;-51
2022/07/22 05:31:45;;;;;;;10.10;9.00;;;21.00;99.90;;;;;;5243820;28;20237;-51
2022/07/22 05:34:16;;;;;;;7.87;6.90;;;21.10;99.90;;;;;;5244413;28;20232;-50
2022/07/22 05:36:46;;;;;;;15.43;7.17;;;21.10;99.90;;;;;;5251129;28;20200;-50
2022/07/22 05:39:18;;;;;;;10.13;8.43;;;21.20;99.90;;;;;;5227668;28;20236;-51
2022/07/22 05:41:48;;;;;;;11.27;9.00;;;21.30;99.90;;;;;;5239688;28;20182;-51
2022/07/22 05:44:19;;;;;;;7.97;7.10;;;21.40;99.90;;;;;;5248156;28;20440;-51
2022/07/22 05:46:49;;;;;;;8.87;7.80;;;21.40;99.90;;;;;;5230048;28;20234;-49
2022/07/22 05:49:21;;;;;;;8.17;7.37;;;21.30;99.90;;;;;;5212920;28;20191;-50
2022/07/22 05:51:52;;;;;;;10.50;9.50;;;21.40;99.90;;;;;;5241555;28;20771;-50
2022/07/22 05:54:23;;;;;;;9.40;8.20;;;21.40;99.90;;;;;;5231338;28;20874;-51
2022/07/22 05:56:54;;;;;;;8.20;7.40;;;21.60;99.90;;;;;;5228032;28;20536;-50
2022/07/22 05:59:24;;;;;;;7.30;6.70;;;21.70;99.90;;;;;;5244319;28;20645;-50
2022/07/22 06:01:55;;;;;;;7.70;7.00;;;22.00;99.90;;;;;;5243316;28;20182;-51
2022/07/22 06:04:26;;;;;;;8.77;7.33;;;22.10;99.90;;;;;;5196754;28;20178;-51
2022/07/22 06:06:57;;;;;;;8.60;7.07;;;22.40;99.90;;;;;;5230968;28;20312;-52
2022/07/22 06:09:27;;;;;;;10.70;7.87;;;22.50;99.90;;;;;;5230029;28;20838;-50
2022/07/22 06:11:58;;;;;;;9.23;7.33;;;22.90;99.90;;;;;;5244726;28;20259;-52
2022/07/22 06:14:29;;;;;;;8.17;7.37;;;23.40;99.90;;;;;;5242399;28;20230;-50
2022/07/22 06:16:59;;;;;;;7.70;7.00;;;23.50;99.90;;;;;;5242030;28;20195;-51
2022/07/22 06:19:30;;;;;;;12.07;7.80;;;23.70;99.90;;;;;;5240331;28;20205;-51
2022/07/22 06:22:00;;;;;;;7.57;6.20;;;24.10;99.90;;;;;;5248211;28;20822;-51
2022/07/22 06:24:31;;;;;;;7.83;6.30;;;24.00;99.90;;;;;;5245230;28;20182;-51
2022/07/22 06:27:02;;;;;;;7.33;5.40;;;24.00;99.90;;;;;;5206661;28;20225;-51
2022/07/22 06:29:32;;;;;;;7.70;6.90;;;23.70;99.90;;;;;;5219686;28;20857;-51
2022/07/22 06:32:03;;;;;;;6.57;5.47;;;23.40;99.90;;;;;;5232365;28;20199;-52
2022/07/22 06:34:34;;;;;;;7.80;7.00;;;23.30;99.90;;;;;;5229729;28;20178;-52
2022/07/22 06:37:05;;;;;;;8.37;7.57;;;23.10;99.90;;;;;;5223215;28;20226;-51
2022/07/22 06:39:35;;;;;;;8.50;7.67;;;23.00;99.90;;;;;;5243131;28;20690;-51
2022/07/22 06:42:07;;;;;;;9.47;7.07;;;23.00;99.90;;;;;;5218635;28;20591;-52
2022/07/22 06:44:37;;;;;;;11.70;7.90;;;23.10;99.90;;;;;;5212890;28;20218;-51
2022/07/22 06:47:08;;;;;;;8.90;7.67;;;23.10;99.90;;;;;;5228326;28;20548;-51
2022/07/22 06:49:38;;;;;;;13.40;6.80;;;23.40;99.90;;;;;;5238913;28;20194;-51
2022/07/22 06:52:09;;;;;;;18.77;6.80;;;23.80;99.90;;;;;;5230152;28;20293;-51
2022/07/22 06:54:39;;;;;;;8.17;6.50;;;24.10;99.90;;;;;;5239238;28;20657;-52
2022/07/22 06:57:11;;;;;;;7.50;6.90;;;24.20;99.90;;;;;;5235488;28;20567;-52
2022/07/22 06:59:41;;;;;;;7.40;6.70;;;24.20;99.90;;;;;;5217554;28;20178;-53
2022/07/22 07:02:12;;;;;;;9.87;7.40;;;24.20;99.90;;;;;;5242032;28;20622;-51
2022/07/22 07:04:42;;;;;;;9.00;7.00;;;24.10;99.90;;;;;;5243155;28;20190;-52
2022/07/22 07:07:13;;;;;;;8.17;7.43;;;24.00;99.90;;;;;;5242923;28;20264;-53
2022/07/22 07:09:44;;;;;;;7.23;6.53;;;23.80;99.90;;;;;;5240068;28;20175;-52
2022/07/22 07:12:14;;;;;;;6.17;5.73;;;24.20;99.90;;;;;;5210969;28;20635;-51
2022/07/22 07:14:45;;;;;;;8.73;7.77;;;24.70;99.90;;;;;;5223983;28;20182;-53
2022/07/22 07:17:15;;;;;;;7.97;7.17;;;24.60;99.90;;;;;;5243201;28;20194;-53
2022/07/22 07:19:46;;;;;;;6.53;6.03;;;24.90;99.90;;;;;;5246811;28;20186;-52
2022/07/22 07:22:16;;;;;;;8.13;5.77;;;25.30;99.90;;;;;;5231906;28;20198;-51
2022/07/22 07:24:47;;;;;;;7.30;6.60;;;25.60;99.90;;;;;;5240784;28;20227;-52
2022/07/22 07:27:18;;;;;;;8.03;6.10;;;26.20;99.90;;;;;;5220475;28;20210;-52
2022/07/22 07:29:48;;;;;;;10.37;6.60;;;26.60;98.30;;;;;;5237094;28;20228;-51
2022/07/22 07:32:19;;;;;;;6.60;6.10;;;26.90;96.00;;;;;;5237838;28;20210;-52
2022/07/22 07:34:49;;;;;;;6.30;5.80;;;26.70;94.60;;;;;;5216493;28;20288;-51
2022/07/22 07:37:20;;;;;;;5.97;5.47;;;27.10;93.70;;;;;;5229152;28;20202;-54
2022/07/22 07:39:50;;;;;;;6.60;4.83;;;27.70;91.70;;;;;;5232361;28;20347;-52
2022/07/22 07:42:21;;;;;;;6.43;5.83;;;29.10;85.20;;;;;;5225621;28;20182;-52
2022/07/22 07:44:52;;;;;;;6.30;5.80;;;29.80;74.40;;;;;;5231434;28;20198;-51
2022/07/22 07:47:22;;;;;;;5.03;4.60;;;31.10;65.60;;;;;;5242727;28;20616;-52
2022/07/22 07:49:53;;;;;;;4.03;3.83;;;32.40;58.20;;;;;;5219150;28;20670;-53
2022/07/22 07:52:23;;;;;;;4.43;4.03;;;34.20;53.40;;;;;;5213674;28;20582;-52
2022/07/22 07:54:55;;;;;;;3.93;3.73;;;34.40;49.60;;;;;;5230638;28;20216;-51
2022/07/22 07:57:26;;;;;;;4.97;4.40;;;33.00;50.50;;;;;;5239917;28;20229;-51
2022/07/22 07:59:56;;;;;;;4.60;4.20;;;30.80;54.00;;;;;;5221250;28;20428;-51
2022/07/22 08:02:27;;;;;;;4.30;3.90;;;30.70;55.60;;;;;;5189202;28;20273;-52
2022/07/22 08:04:57;;;;;;;5.00;4.57;;;31.10;53.70;;;;;;5238205;28;20240;-52
2022/07/22 08:07:29;;;;;;;6.93;4.03;;;32.60;51.60;;;;;;5231948;28;20569;-52
2022/07/22 08:10:00;;;;;;;3.13;2.93;;;33.60;48.80;;;;;;5219733;28;20583;-52
2022/07/22 08:12:30;;;;;;;5.43;3.93;;;34.00;48.10;;;;;;5233732;28;20274;-51
2022/07/22 08:15:01;;;;;;;3.40;3.20;;;32.80;48.30;;;;;;5233073;28;20179;-53
2022/07/22 08:17:33;;;;;;;3.80;3.50;;;31.50;50.60;;;;;;5222098;28;20227;-52
2022/07/22 08:20:05;;;;;;;4.03;3.60;;;30.20;53.30;;;;;;5237521;28;20584;-52
2022/07/22 08:22:36;;;;;;;3.43;3.27;;;29.70;54.40;;;;;;5220874;28;20459;-52
2022/07/22 08:25:08;;;;;;;3.80;3.10;;;28.70;56.00;;;;;;5204206;28;20478;-52
2022/07/22 08:27:39;;;;;;;3.30;3.10;;;28.10;57.80;;;;;;5231008;28;20222;-52
2022/07/22 08:30:10;;;;;;;3.03;2.93;;;27.90;58.80;;;;;;5237484;28;20443;-53
2022/07/22 08:32:41;;;;;;;3.40;3.20;;;28.20;58.50;;;;;;5240639;28;20220;-52
2022/07/22 08:35:12;;;;;;;3.40;3.27;;;28.00;58.10;;;;;;5215591;28;20437;-52
2022/07/22 08:37:45;;;;;;;3.33;3.23;;;27.70;59.10;;;;;;5219525;28;20257;-52
2022/07/22 08:40:17;;;;;;;2.97;2.83;;;27.60;59.40;;;;;;5209628;28;20186;-52
2022/07/22 08:42:48;;;;;;;2.60;2.50;;;27.10;59.80;;;;;;5192702;28;20447;-52
2022/07/22 08:45:19;;;;;;;3.20;3.03;;;26.80;61.90;;;;;;5217194;28;20440;-50
2022/07/22 08:47:51;;;;;;;3.30;3.20;;;26.30;63.30;;;;;;5218692;28;21021;-51
2022/07/22 08:50:22;;;;;;;3.60;3.33;;;25.70;65.30;;;;;;5228587;28;20435;-53
2022/07/22 08:52:53;;;;;;;3.67;3.47;;;25.20;68.80;;;;;;5225330;28;20460;-53
2022/07/22 08:55:25;;;;;;;4.03;3.73;;;24.80;70.80;;;;;;5245751;28;20963;-52
2022/07/22 08:57:55;;;;;;;6.80;4.30;;;24.50;73.20;;;;;;5241562;28;20210;-51
2022/07/22 09:00:26;;;;;;;6.97;4.70;;;24.30;76.10;;;;;;5239145;28;20519;-52
2022/07/22 09:02:57;;;;;;;4.27;3.93;;;24.20;79.00;;;;;;5242138;28;20294;-52
2022/07/22 09:05:33;;;;;;;4.33;4.03;;;24.10;82.10;;;;;;5243453;28;20197;-54
2022/07/22 09:08:04;;;;;;;3.40;3.17;;;24.20;84.80;;;;;;5244921;28;20205;-54
2022/07/22 09:10:35;;;;;;;5.20;3.47;;;24.30;86.90;;;;;;5239802;28;20452;-52
2022/07/22 09:13:08;;;;;;;3.70;3.50;;;24.50;88.90;;;;;;5242823;28;20186;-51
2022/07/22 09:15:49;;;;;;;3.10;2.90;;;24.60;89.00;;;;;;5219352;28;20430;-53
2022/07/22 09:18:20;;;;;;;3.50;3.30;;;24.80;88.70;;;;;;5224214;28;20960;-54
2022/07/22 09:20:58;;;;;;;5.00;4.10;;;25.00;87.90;;;;;;5239736;28;20439;-53
2022/07/22 09:23:39;;;;;;;3.47;3.27;;;25.10;87.70;;;;;;5239732;28;20459;-52
2022/07/22 09:26:32;;;;;;;4.63;4.23;;;25.10;87.00;;;;;;5226014;28;20540;-52
2022/07/22 09:29:05;;;;;;;2.93;2.83;;;25.00;87.50;;;;;;5241693;28;20554;-53
2022/07/22 09:31:36;;;;;;;3.50;2.90;;;24.90;87.80;;;;;;5222263;28;20488;-50
2022/07/22 09:34:07;;;;;;;4.83;3.00;;;24.50;90.30;;;;;;5232826;28;20433;-52
2022/07/22 09:36:54;;;;;;;3.50;3.30;;;24.20;91.50;;;;;;5239599;28;20440;-53
2022/07/22 09:39:30;;;;;;;3.37;3.20;;;23.90;92.70;;;;;;5245359;28;20638;-52
2022/07/22 09:42:04;;;;;;;3.90;3.57;;;23.80;93.80;;;;;;5218727;28;20436;-50
2022/07/22 09:44:34;;;;;;;2.73;2.63;;;23.80;95.10;;;;;;5233332;28;20525;-51
2022/07/22 09:47:05;;;;;;;4.03;3.63;;;24.20;95.40;;;;;;5207343;28;20590;-52
2022/07/22 09:49:39;;;;;;;3.40;3.20;;;24.70;94.50;;;;;;5223252;28;20642;-52
2022/07/22 09:52:10;;;;;;;3.20;3.00;;;25.10;92.70;;;;;;5219402;28;20201;-51
2022/07/22 09:54:41;;;;;;;3.03;2.87;;;25.60;91.50;;;;;;5229707;28;20940;-51
2022/07/22 09:57:12;;;;;;;3.60;2.83;;;25.90;90.20;;;;;;5224326;28;20277;-51
2022/07/22 09:59:42;;;;;;;2.23;2.23;;;26.20;87.90;;;;;;5210363;28;20179;-53
2022/07/22 10:02:16;;;;;;;2.53;2.43;;;26.50;85.80;;;;;;5242696;28;20190;-52
2022/07/22 10:04:47;;;;;;;2.80;2.63;;;26.70;83.20;;;;;;5248006;28;20190;-51
2022/07/22 10:07:18;;;;;;;2.60;2.50;;;27.10;81.20;;;;;;5224448;28;20476;-53
2022/07/22 10:09:51;;;;;;;4.00;3.60;;;27.30;78.60;;;;;;5241237;28;20445;-52
2022/07/22 10:12:22;;;;;;;2.23;2.13;;;26.70;79.50;;;;;;5208788;28;20202;-51
2022/07/22 10:14:54;;;;;;;2.70;2.60;;;25.80;81.50;;;;;;5226091;28;20436;-52
2022/07/22 10:17:24;;;;;;;2.07;1.97;;;25.40;84.40;;;;;;5242231;28;20457;-52
2022/07/22 10:19:56;;;;;;;3.33;2.70;;;25.30;86.00;;;;;;5227368;28;20424;-53
2022/07/22 10:22:39;;;;;;;2.23;2.10;;;25.10;87.40;;;;;;5229731;28;20455;-52
2022/07/22 10:25:11;;;;;;;1.83;1.73;;;25.00;90.00;;;;;;5241228;28;20435;-51
2022/07/22 10:27:47;;;;;;;2.20;2.10;;;24.80;90.50;;;;;;5242742;28;20475;-50
2022/07/22 10:30:20;;;;;;;2.20;2.10;;;24.90;90.70;;;;;;5226187;28;20473;-49
2022/07/22 10:33:13;;;;;;;2.63;2.43;;;24.70;90.70;;;;;;5251462;28;20487;-50
2022/07/22 10:35:43;;;;;;;2.90;2.70;;;25.10;90.70;;;;;;5242745;28;20531;-50
2022/07/22 10:38:14;;;;;;;2.00;2.00;;;25.20;90.30;;;;;;5244913;28;21042;-55
2022/07/22 10:40:49;;;;;;;4.60;4.10;;;25.40;89.60;;;;;;5212501;28;20215;-52
2022/07/22 10:43:27;;;;;;;2.40;2.40;;;25.00;90.20;;;;;;5246491;28;20211;-51
2022/07/22 10:46:02;;;;;;;3.03;2.83;;;25.20;90.60;;;;;;5220713;28;20443;-51
2022/07/22 10:48:33;;;;;;;2.70;2.60;;;25.30;88.90;;;;;;5244181;28;20452;-52
2022/07/22 10:51:11;;;;;;;2.90;2.80;;;25.20;89.90;;;;;;5222203;28;20465;-51
2022/07/22 10:53:46;;;;;;;2.77;2.60;;;25.60;88.90;;;;;;5240302;28;20545;-51
2022/07/22 10:56:26;;;;;;;2.23;2.13;;;25.60;87.60;;;;;;5225051;28;20424;-51
2022/07/22 10:59:16;;;;;;;1.73;1.70;;;25.70;86.40;;;;;;5248033;28;20494;-52
2022/07/22 11:01:50;;;;;;;2.17;2.07;;;25.70;87.40;;;;;;5225337;28;20433;-50
2022/07/22 11:04:24;;;;;;;1.70;1.70;;;25.30;88.80;;;;;;5203441;28;20967;-52
2022/07/22 11:06:56;;;;;;;2.50;2.20;;;25.00;90.60;;;;;;5227113;28;20509;-51
2022/07/22 11:09:34;;;;;;;2.73;2.63;;;25.00;91.30;;;;;;5221034;28;20455;-53
2022/07/22 11:12:12;;;;;;;4.10;3.70;;;25.10;91.10;;;;;;5214396;28;20517;-54
2022/07/22 11:14:42;;;;;;;2.60;2.50;;;24.90;91.60;;;;;;5239455;28;20425;-50
2022/07/22 11:17:14;;;;;;;3.30;3.10;;;24.80;91.80;;;;;;5221095;28;20471;-51
2022/07/22 11:19:44;;;;;;;5.30;2.43;;;24.90;92.30;;;;;;5222772;28;20251;-54
2022/07/22 11:22:16;;;;;;;3.60;3.30;;;25.10;91.70;;;;;;5236964;28;20436;-50
2022/07/22 11:24:50;;;;;;;10.53;3.37;;;25.20;91.70;;;;;;5221717;28;20595;-53
2022/07/22 11:27:21;;;;;;;4.70;4.40;;;25.50;91.40;;;;;;5250120;28;20555;-51
2022/07/22 11:29:54;;;;;;;6.33;5.27;;;25.50;90.80;;;;;;5224346;28;20467;-52
2022/07/22 11:32:27;;;;;;;4.00;3.67;;;25.50;90.60;;;;;;5225919;28;20522;-51
2022/07/22 11:34:59;;;;;;;6.47;3.93;;;25.60;90.40;;;;;;5228114;28;20485;-49
2022/07/22 11:37:29;;;;;;;4.13;3.73;;;25.20;90.60;;;;;;5228871;28;20532;-50
2022/07/22 11:40:05;;;;;;;3.40;3.23;;;25.40;91.10;;;;;;5238073;28;20527;-50
2022/07/22 11:42:36;;;;;;;3.20;3.00;;;25.90;90.30;;;;;;5239291;28;20201;-51
2022/07/22 11:45:07;;;;;;;3.33;3.23;;;26.20;88.60;;;;;;5238255;28;20481;-50
2022/07/22 11:47:37;;;;;;;3.83;3.63;;;26.50;86.30;;;;;;5235976;28;20206;-50
2022/07/22 11:50:08;;;;;;;6.07;5.57;;;26.20;85.90;;;;;;5240593;28;20201;-51
2022/07/22 11:52:39;;;;;;;3.47;3.27;;;26.10;86.30;;;;;;5238798;28;20209;-51
2022/07/22 11:55:16;;;;;;;3.50;3.20;;;26.10;84.70;;;;;;5235639;28;20610;-48
2022/07/22 11:57:48;;;;;;;3.70;3.50;;;26.50;84.70;;;;;;5226656;28;20210;-50
2022/07/22 12:00:19;;;;;;;4.30;2.60;;;26.70;82.90;;;;;;5208601;28;20599;-50
2022/07/22 12:02:50;;;;;;;3.03;2.77;;;26.60;82.70;;;;;;5206118;28;20533;-50
2022/07/22 12:05:21;;;;;;;3.53;2.63;;;26.30;82.50;;;;;;5242056;28;20543;-50
2022/07/22 12:07:51;;;;;;;2.20;2.10;;;26.00;83.10;;;;;;5226908;28;20720;-50
2022/07/22 12:10:22;;;;;;;3.10;2.90;;;26.00;83.50;;;;;;5223036;28;20652;-50
2022/07/22 12:12:54;;;;;;;2.50;2.40;;;26.00;83.30;;;;;;5235628;28;20708;-51
2022/07/22 12:15:25;;;;;;;2.00;2.00;;;25.70;83.20;;;;;;5241498;28;20193;-51
2022/07/22 12:18:16;;;;;;;3.00;2.80;;;25.90;83.60;;;;;;5223465;28;20460;-51
2022/07/22 12:20:48;;;;;;;4.10;3.80;;;25.90;82.50;;;;;;5238586;28;20171;-52
2022/07/22 12:23:19;;;;;;;22.97;3.40;;;25.50;84.60;;;;;;5207211;28;20510;-50
2022/07/22 12:25:54;;;;;;;2.53;2.43;;;25.60;84.80;;;;;;5230281;28;20450;-52
2022/07/22 12:28:25;;;;;;;3.70;2.13;;;25.60;82.70;;;;;;5239658;28;20471;-50
2022/07/22 12:30:56;;;;;;;3.40;3.27;;;25.50;82.20;;;;;;5229451;28;20508;-52
2022/07/22 12:33:27;;;;;;;8.13;5.53;;;25.30;84.40;;;;;;5239292;28;20432;-50
2022/07/22 12:36:07;;;;;;;4.77;4.47;;;25.30;85.60;;;;;;5246847;28;20436;-51
2022/07/22 12:38:38;;;;;;;2.73;2.63;;;25.60;85.90;;;;;;5249860;28;20203;-51
2022/07/22 12:41:26;;;;;;;2.20;2.10;;;25.80;84.60;;;;;;5243555;28;20523;-52
2022/07/22 12:43:56;;;;;;;2.17;2.07;;;25.80;84.30;;;;;;5235232;28;20181;-51
2022/07/22 12:46:27;;;;;;;2.63;2.47;;;25.40;84.10;;;;;;5236919;28;20433;-51
2022/07/22 12:49:00;;;;;;;2.73;2.53;;;25.10;85.50;;;;;;5221158;28;20182;-49
2022/07/22 12:51:31;;;;;;;2.93;2.73;;;24.90;86.90;;;;;;5240779;28;20206;-49
2022/07/22 12:54:01;;;;;;;1.93;1.93;;;24.70;87.20;;;;;;5241098;28;20974;-48
2022/07/22 12:56:33;;;;;;;2.10;2.10;;;24.60;88.50;;;;;;5245393;28;20213;-51
2022/07/22 12:59:04;;;;;;;3.03;2.17;;;24.40;89.20;;;;;;5223394;28;20185;-50
2022/07/22 13:01:34;;;;;;;1.70;1.70;;;24.30;89.00;;;;;;5237607;28;20441;-50
2022/07/22 13:04:05;;;;;;;1.90;1.80;;;24.20;90.00;;;;;;5240505;28;20645;-49
2022/07/22 13:06:36;;;;;;;1.90;1.90;;;24.10;89.90;;;;;;5243332;28;20258;-50
2022/07/22 13:09:07;;;;;;;1.53;1.53;;;24.30;89.90;;;;;;5226336;28;20183;-51
2022/07/22 13:11:43;;;;;;;15.93;1.63;;;24.50;89.60;;;;;;5200094;28;20459;-50